Grattan, Minnesota
Current Conditions -  °F | °C
As of 4:13 AM on Monday 26 Jan 2015 (Local Time) from KFOZ Reporting Station
Light Snow Light Snow  
Wind Chill: 16°   Ceiling: 1300
Heat Index: 25°   Visibility: 5mi
Dew Point: 21°   Wind: 8mph
Humidity: 86%   Direction: 200°SSW
Pressure: 29.61"   Gusts: NA
Location:  47.8312°N, 94.1459°W
Report Text: KFOZ 261013Z AUTO 20007KT 5SM -SN OVC013 M04/M06 A2961 RMK AO2
Loading
Personal Weather Stations






























Interactive Weather Map New forecast layout! Learn more

10-Day Weather Forecast

Advertisements
Track Severe Weather on mobile